sensor_id;sensor_type;location;lat;lon;timestamp;P1;durP1;ratioP1;P2;durP2;ratioP2
17482;SDS011;8858;52.308;20.994;2022-12-24T00:01:49;30.33;;;24.33;;
17482;SDS011;8858;52.308;20.994;2022-12-24T00:04:23;28.87;;;23.13;;
17482;SDS011;8858;52.308;20.994;2022-12-24T00:06:51;30.70;;;24.43;;
17482;SDS011;8858;52.308;20.994;2022-12-24T00:09:20;30.33;;;24.93;;
17482;SDS011;8858;52.308;20.994;2022-12-24T00:11:49;28.97;;;24.00;;
17482;SDS011;8858;52.308;20.994;2022-12-24T00:14:18;33.23;;;26.20;;
17482;SDS011;8858;52.308;20.994;2022-12-24T00:16:47;34.03;;;26.57;;
17482;SDS011;8858;52.308;20.994;2022-12-24T00:19:17;34.17;;;26.43;;
17482;SDS011;8858;52.308;20.994;2022-12-24T00:21:46;32.57;;;26.27;;
17482;SDS011;8858;52.308;20.994;2022-12-24T00:24:15;27.10;;;23.50;;
17482;SDS011;8858;52.308;20.994;2022-12-24T00:26:46;29.07;;;23.57;;
17482;SDS011;8858;52.308;20.994;2022-12-24T00:29:14;32.47;;;24.77;;
17482;SDS011;8858;52.308;20.994;2022-12-24T00:31:43;28.80;;;23.37;;
17482;SDS011;8858;52.308;20.994;2022-12-24T00:34:11;28.90;;;23.07;;
17482;SDS011;8858;52.308;20.994;2022-12-24T00:36:41;26.13;;;21.87;;
17482;SDS011;8858;52.308;20.994;2022-12-24T00:39:13;30.03;;;23.20;;
17482;SDS011;8858;52.308;20.994;2022-12-24T00:41:42;27.57;;;22.60;;
17482;SDS011;8858;52.308;20.994;2022-12-24T00:44:11;28.27;;;23.53;;
17482;SDS011;8858;52.308;20.994;2022-12-24T00:46:42;31.73;;;23.97;;
17482;SDS011;8858;52.308;20.994;2022-12-24T00:49:11;35.60;;;24.73;;
17482;SDS011;8858;52.308;20.994;2022-12-24T00:51:39;36.73;;;26.27;;
17482;SDS011;8858;52.308;20.994;2022-12-24T00:54:09;32.87;;;24.57;;
17482;SDS011;8858;52.308;20.994;2022-12-24T00:56:38;29.60;;;22.60;;
17482;SDS011;8858;52.308;20.994;2022-12-24T00:59:07;36.33;;;23.30;;
17482;SDS011;8858;52.308;20.994;2022-12-24T01:01:36;31.50;;;23.77;;
17482;SDS011;8858;52.308;20.994;2022-12-24T01:04:07;28.13;;;21.83;;
17482;SDS011;8858;52.308;20.994;2022-12-24T01:06:54;26.07;;;21.97;;
17482;SDS011;8858;52.308;20.994;2022-12-24T01:09:22;24.90;;;21.17;;
17482;SDS011;8858;52.308;20.994;2022-12-24T01:11:52;23.33;;;19.50;;
17482;SDS011;8858;52.308;20.994;2022-12-24T01:14:24;24.57;;;19.87;;
17482;SDS011;8858;52.308;20.994;2022-12-24T01:16:53;23.70;;;19.90;;
17482;SDS011;8858;52.308;20.994;2022-12-24T01:19:22;25.30;;;21.03;;
17482;SDS011;8858;52.308;20.994;2022-12-24T01:21:52;26.50;;;21.13;;
17482;SDS011;8858;52.308;20.994;2022-12-24T01:24:21;26.27;;;20.23;;
17482;SDS011;8858;52.308;20.994;2022-12-24T01:26:52;33.83;;;24.47;;
17482;SDS011;8858;52.308;20.994;2022-12-24T01:29:21;34.37;;;25.27;;
17482;SDS011;8858;52.308;20.994;2022-12-24T01:31:49;34.30;;;25.00;;
17482;SDS011;8858;52.308;20.994;2022-12-24T01:34:18;39.43;;;26.10;;
17482;SDS011;8858;52.308;20.994;2022-12-24T01:36:49;43.13;;;28.50;;
17482;SDS011;8858;52.308;20.994;2022-12-24T01:39:23;45.70;;;29.00;;
17482;SDS011;8858;52.308;20.994;2022-12-24T01:41:52;50.47;;;30.03;;
17482;SDS011;8858;52.308;20.994;2022-12-24T01:44:39;50.90;;;30.47;;
17482;SDS011;8858;52.308;20.994;2022-12-24T01:47:10;52.47;;;31.97;;
17482;SDS011;8858;52.308;20.994;2022-12-24T01:49:43;46.73;;;28.33;;
17482;SDS011;8858;52.308;20.994;2022-12-24T01:52:15;44.90;;;28.40;;
17482;SDS011;8858;52.308;20.994;2022-12-24T01:54:48;47.77;;;28.60;;
17482;SDS011;8858;52.308;20.994;2022-12-24T01:57:22;50.60;;;29.67;;
17482;SDS011;8858;52.308;20.994;2022-12-24T01:59:55;44.13;;;29.37;;
17482;SDS011;8858;52.308;20.994;2022-12-24T02:02:34;45.13;;;29.37;;
17482;SDS011;8858;52.308;20.994;2022-12-24T02:05:04;50.30;;;29.73;;
17482;SDS011;8858;52.308;20.994;2022-12-24T02:07:35;48.03;;;30.57;;
17482;SDS011;8858;52.308;20.994;2022-12-24T02:10:07;49.80;;;31.03;;
17482;SDS011;8858;52.308;20.994;2022-12-24T02:12:38;51.57;;;31.73;;
17482;SDS011;8858;52.308;20.994;2022-12-24T02:15:08;50.30;;;31.73;;
17482;SDS011;8858;52.308;20.994;2022-12-24T02:17:41;55.00;;;31.37;;
17482;SDS011;8858;52.308;20.994;2022-12-24T02:20:41;52.37;;;31.03;;
17482;SDS011;8858;52.308;20.994;2022-12-24T02:23:30;49.37;;;30.57;;
17482;SDS011;8858;52.308;20.994;2022-12-24T02:26:30;45.83;;;29.57;;
17482;SDS011;8858;52.308;20.994;2022-12-24T02:29:18;46.77;;;28.67;;
17482;SDS011;8858;52.308;20.994;2022-12-24T02:31:59;44.77;;;28.17;;
17482;SDS011;8858;52.308;20.994;2022-12-24T02:34:31;45.33;;;29.20;;
17482;SDS011;8858;52.308;20.994;2022-12-24T02:37:05;44.30;;;28.73;;
17482;SDS011;8858;52.308;20.994;2022-12-24T02:39:42;48.33;;;31.13;;
17482;SDS011;8858;52.308;20.994;2022-12-24T02:42:16;62.33;;;34.50;;
17482;SDS011;8858;52.308;20.994;2022-12-24T02:44:49;73.43;;;38.23;;
17482;SDS011;8858;52.308;20.994;2022-12-24T02:47:23;66.83;;;38.10;;
17482;SDS011;8858;52.308;20.994;2022-12-24T02:49:53;76.30;;;39.03;;
17482;SDS011;8858;52.308;20.994;2022-12-24T02:52:28;65.57;;;37.90;;
17482;SDS011;8858;52.308;20.994;2022-12-24T02:54:59;63.70;;;37.80;;
17482;SDS011;8858;52.308;20.994;2022-12-24T02:57:33;58.53;;;35.43;;
17482;SDS011;8858;52.308;20.994;2022-12-24T03:00:12;44.97;;;30.43;;
17482;SDS011;8858;52.308;20.994;2022-12-24T03:02:48;43.67;;;30.23;;
17482;SDS011;8858;52.308;20.994;2022-12-24T03:05:27;40.43;;;28.87;;
17482;SDS011;8858;52.308;20.994;2022-12-24T03:08:04;48.30;;;31.20;;
17482;SDS011;8858;52.308;20.994;2022-12-24T03:10:45;60.17;;;35.70;;
17482;SDS011;8858;52.308;20.994;2022-12-24T03:13:18;66.30;;;37.13;;
17482;SDS011;8858;52.308;20.994;2022-12-24T03:15:49;60.30;;;35.07;;
17482;SDS011;8858;52.308;20.994;2022-12-24T03:18:21;54.57;;;33.37;;
17482;SDS011;8858;52.308;20.994;2022-12-24T03:20:53;52.10;;;32.70;;
17482;SDS011;8858;52.308;20.994;2022-12-24T03:23:27;48.80;;;31.83;;
17482;SDS011;8858;52.308;20.994;2022-12-24T03:25:55;50.63;;;32.33;;
17482;SDS011;8858;52.308;20.994;2022-12-24T03:28:26;51.97;;;32.97;;
17482;SDS011;8858;52.308;20.994;2022-12-24T03:30:59;47.73;;;31.73;;
17482;SDS011;8858;52.308;20.994;2022-12-24T03:33:31;48.00;;;29.27;;
17482;SDS011;8858;52.308;20.994;2022-12-24T03:36:00;41.07;;;28.40;;
17482;SDS011;8858;52.308;20.994;2022-12-24T03:38:29;42.33;;;28.30;;
17482;SDS011;8858;52.308;20.994;2022-12-24T03:40:57;40.53;;;29.10;;
17482;SDS011;8858;52.308;20.994;2022-12-24T03:43:26;37.80;;;26.20;;
17482;SDS011;8858;52.308;20.994;2022-12-24T03:45:55;40.07;;;27.37;;
17482;SDS011;8858;52.308;20.994;2022-12-24T03:48:25;35.87;;;25.77;;
17482;SDS011;8858;52.308;20.994;2022-12-24T03:51:01;35.50;;;25.70;;
17482;SDS011;8858;52.308;20.994;2022-12-24T03:53:32;36.80;;;25.63;;
17482;SDS011;8858;52.308;20.994;2022-12-24T03:56:02;35.23;;;24.80;;
17482;SDS011;8858;52.308;20.994;2022-12-24T03:58:30;33.07;;;24.77;;
17482;SDS011;8858;52.308;20.994;2022-12-24T04:00:59;30.07;;;23.43;;
17482;SDS011;8858;52.308;20.994;2022-12-24T04:03:27;33.50;;;24.27;;
17482;SDS011;8858;52.308;20.994;2022-12-24T04:06:02;33.97;;;23.70;;
17482;SDS011;8858;52.308;20.994;2022-12-24T04:08:31;35.03;;;23.67;;
17482;SDS011;8858;52.308;20.994;2022-12-24T04:11:02;31.20;;;23.40;;
17482;SDS011;8858;52.308;20.994;2022-12-24T04:13:35;30.33;;;22.17;;
17482;SDS011;8858;52.308;20.994;2022-12-24T04:16:05;31.70;;;23.67;;
17482;SDS011;8858;52.308;20.994;2022-12-24T04:18:35;30.63;;;22.83;;
17482;SDS011;8858;52.308;20.994;2022-12-24T04:21:07;31.57;;;23.57;;
17482;SDS011;8858;52.308;20.994;2022-12-24T04:23:37;30.43;;;22.27;;
17482;SDS011;8858;52.308;20.994;2022-12-24T04:26:08;31.57;;;22.63;;
17482;SDS011;8858;52.308;20.994;2022-12-24T04:28:39;29.90;;;21.57;;
17482;SDS011;8858;52.308;20.994;2022-12-24T04:31:09;27.97;;;21.30;;
17482;SDS011;8858;52.308;20.994;2022-12-24T04:33:40;31.23;;;21.47;;
17482;SDS011;8858;52.308;20.994;2022-12-24T04:36:11;30.30;;;21.67;;
17482;SDS011;8858;52.308;20.994;2022-12-24T04:38:42;29.43;;;21.07;;
17482;SDS011;8858;52.308;20.994;2022-12-24T04:41:12;30.80;;;20.20;;
17482;SDS011;8858;52.308;20.994;2022-12-24T04:43:49;29.60;;;21.10;;
17482;SDS011;8858;52.308;20.994;2022-12-24T04:46:23;29.07;;;20.93;;
17482;SDS011;8858;52.308;20.994;2022-12-24T04:48:55;28.53;;;21.10;;
17482;SDS011;8858;52.308;20.994;2022-12-24T04:51:29;33.03;;;22.30;;
17482;SDS011;8858;52.308;20.994;2022-12-24T04:53:57;28.23;;;20.10;;
17482;SDS011;8858;52.308;20.994;2022-12-24T04:56:27;29.17;;;20.33;;
17482;SDS011;8858;52.308;20.994;2022-12-24T04:58:58;28.23;;;20.30;;
17482;SDS011;8858;52.308;20.994;2022-12-24T05:01:27;30.57;;;19.97;;
17482;SDS011;8858;52.308;20.994;2022-12-24T05:03:58;32.07;;;20.67;;
17482;SDS011;8858;52.308;20.994;2022-12-24T05:06:30;26.33;;;18.93;;
17482;SDS011;8858;52.308;20.994;2022-12-24T05:09:02;28.90;;;19.80;;
17482;SDS011;8858;52.308;20.994;2022-12-24T05:11:30;28.57;;;18.53;;
17482;SDS011;8858;52.308;20.994;2022-12-24T05:14:00;30.43;;;18.80;;
17482;SDS011;8858;52.308;20.994;2022-12-24T05:16:28;29.03;;;19.00;;
17482;SDS011;8858;52.308;20.994;2022-12-24T05:18:57;29.87;;;18.80;;
17482;SDS011;8858;52.308;20.994;2022-12-24T05:21:25;29.73;;;18.53;;
17482;SDS011;8858;52.308;20.994;2022-12-24T05:23:56;31.60;;;18.13;;
17482;SDS011;8858;52.308;20.994;2022-12-24T05:26:43;28.77;;;17.67;;
17482;SDS011;8858;52.308;20.994;2022-12-24T05:29:19;28.77;;;18.00;;
17482;SDS011;8858;52.308;20.994;2022-12-24T05:31:49;27.70;;;17.73;;
17482;SDS011;8858;52.308;20.994;2022-12-24T05:34:18;30.30;;;18.93;;
17482;SDS011;8858;52.308;20.994;2022-12-24T05:36:46;28.33;;;17.80;;
17482;SDS011;8858;52.308;20.994;2022-12-24T05:39:16;28.07;;;17.43;;
17482;SDS011;8858;52.308;20.994;2022-12-24T05:41:46;25.77;;;16.90;;
17482;SDS011;8858;52.308;20.994;2022-12-24T05:44:14;28.07;;;17.33;;
17482;SDS011;8858;52.308;20.994;2022-12-24T05:46:43;26.27;;;16.87;;
17482;SDS011;8858;52.308;20.994;2022-12-24T05:49:12;24.90;;;17.10;;
17482;SDS011;8858;52.308;20.994;2022-12-24T05:51:40;25.83;;;16.20;;
17482;SDS011;8858;52.308;20.994;2022-12-24T05:54:09;25.23;;;16.07;;
17482;SDS011;8858;52.308;20.994;2022-12-24T05:56:38;28.13;;;16.20;;
17482;SDS011;8858;52.308;20.994;2022-12-24T05:59:07;25.53;;;16.20;;
17482;SDS011;8858;52.308;20.994;2022-12-24T06:01:36;24.77;;;15.77;;
17482;SDS011;8858;52.308;20.994;2022-12-24T06:04:04;27.20;;;16.07;;
17482;SDS011;8858;52.308;20.994;2022-12-24T06:06:33;24.93;;;15.27;;
17482;SDS011;8858;52.308;20.994;2022-12-24T06:09:01;27.50;;;15.77;;
17482;SDS011;8858;52.308;20.994;2022-12-24T06:11:31;23.57;;;15.23;;
17482;SDS011;8858;52.308;20.994;2022-12-24T06:14:00;25.43;;;15.60;;
17482;SDS011;8858;52.308;20.994;2022-12-24T06:16:30;25.90;;;15.57;;
17482;SDS011;8858;52.308;20.994;2022-12-24T06:18:59;24.67;;;15.87;;
17482;SDS011;8858;52.308;20.994;2022-12-24T06:21:27;25.13;;;15.83;;
17482;SDS011;8858;52.308;20.994;2022-12-24T06:23:56;23.80;;;15.57;;
17482;SDS011;8858;52.308;20.994;2022-12-24T06:26:26;23.87;;;15.47;;
17482;SDS011;8858;52.308;20.994;2022-12-24T06:28:54;25.27;;;15.63;;
17482;SDS011;8858;52.308;20.994;2022-12-24T06:31:25;28.97;;;16.83;;
17482;SDS011;8858;52.308;20.994;2022-12-24T06:33:54;27.50;;;16.57;;
17482;SDS011;8858;52.308;20.994;2022-12-24T06:36:23;27.23;;;17.17;;
17482;SDS011;8858;52.308;20.994;2022-12-24T06:38:55;29.30;;;17.33;;
17482;SDS011;8858;52.308;20.994;2022-12-24T06:41:24;27.07;;;17.60;;
17482;SDS011;8858;52.308;20.994;2022-12-24T06:43:53;29.37;;;17.70;;
17482;SDS011;8858;52.308;20.994;2022-12-24T06:46:22;27.13;;;16.73;;
17482;SDS011;8858;52.308;20.994;2022-12-24T06:48:54;32.17;;;17.57;;
17482;SDS011;8858;52.308;20.994;2022-12-24T06:51:26;28.93;;;17.13;;
17482;SDS011;8858;52.308;20.994;2022-12-24T06:53:58;24.57;;;17.17;;
17482;SDS011;8858;52.308;20.994;2022-12-24T06:56:26;27.13;;;16.67;;
17482;SDS011;8858;52.308;20.994;2022-12-24T06:58:55;27.53;;;16.87;;
17482;SDS011;8858;52.308;20.994;2022-12-24T07:01:32;28.90;;;18.10;;
17482;SDS011;8858;52.308;20.994;2022-12-24T07:04:00;29.73;;;17.17;;
17482;SDS011;8858;52.308;20.994;2022-12-24T07:06:29;33.17;;;18.73;;
17482;SDS011;8858;52.308;20.994;2022-12-24T07:08:57;29.40;;;17.90;;
17482;SDS011;8858;52.308;20.994;2022-12-24T07:11:25;24.80;;;16.90;;
17482;SDS011;8858;52.308;20.994;2022-12-24T07:13:54;25.80;;;16.60;;
17482;SDS011;8858;52.308;20.994;2022-12-24T07:16:23;26.97;;;17.23;;
17482;SDS011;8858;52.308;20.994;2022-12-24T07:18:54;29.43;;;18.13;;
17482;SDS011;8858;52.308;20.994;2022-12-24T07:21:23;29.07;;;17.93;;
17482;SDS011;8858;52.308;20.994;2022-12-24T07:23:51;30.30;;;18.60;;
17482;SDS011;8858;52.308;20.994;2022-12-24T07:26:20;31.97;;;19.07;;
17482;SDS011;8858;52.308;20.994;2022-12-24T07:28:49;29.17;;;19.13;;
17482;SDS011;8858;52.308;20.994;2022-12-24T07:31:17;32.40;;;18.43;;
17482;SDS011;8858;52.308;20.994;2022-12-24T07:33:46;29.73;;;18.43;;
17482;SDS011;8858;52.308;20.994;2022-12-24T07:36:18;29.90;;;18.67;;
17482;SDS011;8858;52.308;20.994;2022-12-24T07:38:47;25.30;;;17.10;;
17482;SDS011;8858;52.308;20.994;2022-12-24T07:41:18;26.83;;;16.77;;
17482;SDS011;8858;52.308;20.994;2022-12-24T07:43:46;28.30;;;17.17;;
17482;SDS011;8858;52.308;20.994;2022-12-24T07:46:14;24.77;;;16.10;;
17482;SDS011;8858;52.308;20.994;2022-12-24T07:48:42;25.20;;;16.50;;
17482;SDS011;8858;52.308;20.994;2022-12-24T07:51:13;26.23;;;16.77;;
17482;SDS011;8858;52.308;20.994;2022-12-24T07:53:45;24.27;;;15.63;;
17482;SDS011;8858;52.308;20.994;2022-12-24T07:56:14;22.33;;;15.17;;
17482;SDS011;8858;52.308;20.994;2022-12-24T07:58:42;22.30;;;14.30;;
17482;SDS011;8858;52.308;20.994;2022-12-24T08:01:11;22.10;;;13.57;;
17482;SDS011;8858;52.308;20.994;2022-12-24T08:03:42;21.40;;;13.90;;
17482;SDS011;8858;52.308;20.994;2022-12-24T08:06:11;21.53;;;13.30;;
17482;SDS011;8858;52.308;20.994;2022-12-24T08:08:39;66.43;;;45.27;;
17482;SDS011;8858;52.308;20.994;2022-12-24T08:11:12;62.17;;;40.63;;
17482;SDS011;8858;52.308;20.994;2022-12-24T08:13:40;23.30;;;16.03;;
17482;SDS011;8858;52.308;20.994;2022-12-24T08:16:12;22.00;;;14.83;;
17482;SDS011;8858;52.308;20.994;2022-12-24T08:18:40;20.60;;;13.93;;
17482;SDS011;8858;52.308;20.994;2022-12-24T08:21:09;22.10;;;14.20;;
17482;SDS011;8858;52.308;20.994;2022-12-24T08:23:37;19.07;;;13.83;;
17482;SDS011;8858;52.308;20.994;2022-12-24T08:26:09;22.13;;;14.70;;
17482;SDS011;8858;52.308;20.994;2022-12-24T08:28:40;19.73;;;13.77;;
17482;SDS011;8858;52.308;20.994;2022-12-24T08:31:08;17.53;;;13.20;;
17482;SDS011;8858;52.308;20.994;2022-12-24T08:33:36;19.70;;;13.97;;
17482;SDS011;8858;52.308;20.994;2022-12-24T08:36:10;19.67;;;14.27;;
17482;SDS011;8858;52.308;20.994;2022-12-24T08:38:38;19.13;;;14.83;;
17482;SDS011;8858;52.308;20.994;2022-12-24T08:41:08;21.90;;;14.57;;
17482;SDS011;8858;52.308;20.994;2022-12-24T08:43:36;24.83;;;16.07;;
17482;SDS011;8858;52.308;20.994;2022-12-24T08:46:05;29.90;;;17.87;;
17482;SDS011;8858;52.308;20.994;2022-12-24T08:48:35;27.03;;;17.77;;
17482;SDS011;8858;52.308;20.994;2022-12-24T08:51:06;26.03;;;15.80;;
17482;SDS011;8858;52.308;20.994;2022-12-24T08:53:35;23.20;;;15.23;;
17482;SDS011;8858;52.308;20.994;2022-12-24T08:56:04;21.20;;;14.87;;
17482;SDS011;8858;52.308;20.994;2022-12-24T08:58:35;20.53;;;14.20;;
17482;SDS011;8858;52.308;20.994;2022-12-24T09:01:12;21.83;;;15.27;;
17482;SDS011;8858;52.308;20.994;2022-12-24T09:03:43;20.13;;;14.40;;
17482;SDS011;8858;52.308;20.994;2022-12-24T09:06:11;22.47;;;15.03;;
17482;SDS011;8858;52.308;20.994;2022-12-24T09:08:43;20.97;;;14.97;;
17482;SDS011;8858;52.308;20.994;2022-12-24T09:11:12;23.33;;;16.10;;
17482;SDS011;8858;52.308;20.994;2022-12-24T09:13:42;20.40;;;15.07;;
17482;SDS011;8858;52.308;20.994;2022-12-24T09:16:12;23.37;;;15.23;;
17482;SDS011;8858;52.308;20.994;2022-12-24T09:18:43;22.80;;;15.27;;
17482;SDS011;8858;52.308;20.994;2022-12-24T09:21:12;25.13;;;16.53;;
17482;SDS011;8858;52.308;20.994;2022-12-24T09:23:43;25.57;;;17.23;;
17482;SDS011;8858;52.308;20.994;2022-12-24T09:26:13;25.07;;;15.97;;
17482;SDS011;8858;52.308;20.994;2022-12-24T09:28:43;24.50;;;16.30;;
17482;SDS011;8858;52.308;20.994;2022-12-24T09:31:13;24.63;;;16.13;;
17482;SDS011;8858;52.308;20.994;2022-12-24T09:33:43;23.67;;;15.43;;
17482;SDS011;8858;52.308;20.994;2022-12-24T09:36:12;25.63;;;16.17;;
17482;SDS011;8858;52.308;20.994;2022-12-24T09:38:40;27.77;;;19.03;;
17482;SDS011;8858;52.308;20.994;2022-12-24T09:41:12;44.67;;;31.50;;
17482;SDS011;8858;52.308;20.994;2022-12-24T09:43:44;26.80;;;18.53;;
17482;SDS011;8858;52.308;20.994;2022-12-24T09:46:19;27.23;;;16.97;;
17482;SDS011;8858;52.308;20.994;2022-12-24T09:48:52;26.20;;;17.60;;
17482;SDS011;8858;52.308;20.994;2022-12-24T09:51:25;27.30;;;17.80;;
17482;SDS011;8858;52.308;20.994;2022-12-24T09:53:59;25.83;;;17.63;;
17482;SDS011;8858;52.308;20.994;2022-12-24T09:56:32;29.07;;;18.70;;
17482;SDS011;8858;52.308;20.994;2022-12-24T09:59:05;28.67;;;18.53;;
17482;SDS011;8858;52.308;20.994;2022-12-24T10:01:39;26.27;;;17.70;;
17482;SDS011;8858;52.308;20.994;2022-12-24T10:04:11;26.30;;;18.07;;
17482;SDS011;8858;52.308;20.994;2022-12-24T10:06:44;26.77;;;18.30;;
17482;SDS011;8858;52.308;20.994;2022-12-24T10:09:22;28.47;;;18.90;;
17482;SDS011;8858;52.308;20.994;2022-12-24T10:11:55;28.80;;;19.07;;
17482;SDS011;8858;52.308;20.994;2022-12-24T10:14:34;25.57;;;17.63;;
17482;SDS011;8858;52.308;20.994;2022-12-24T10:17:23;27.27;;;17.60;;
17482;SDS011;8858;52.308;20.994;2022-12-24T10:20:11;26.13;;;17.80;;
17482;SDS011;8858;52.308;20.994;2022-12-24T10:22:52;22.90;;;17.50;;
17482;SDS011;8858;52.308;20.994;2022-12-24T10:25:29;26.83;;;18.60;;
17482;SDS011;8858;52.308;20.994;2022-12-24T10:28:06;25.50;;;18.80;;
17482;SDS011;8858;52.308;20.994;2022-12-24T10:30:41;23.90;;;17.70;;
17482;SDS011;8858;52.308;20.994;2022-12-24T10:33:15;22.50;;;16.80;;
17482;SDS011;8858;52.308;20.994;2022-12-24T10:35:48;25.40;;;17.23;;
17482;SDS011;8858;52.308;20.994;2022-12-24T10:38:19;26.43;;;18.60;;
17482;SDS011;8858;52.308;20.994;2022-12-24T10:40:50;23.27;;;17.87;;
17482;SDS011;8858;52.308;20.994;2022-12-24T10:43:22;24.53;;;17.77;;
17482;SDS011;8858;52.308;20.994;2022-12-24T10:45:52;27.10;;;18.83;;
17482;SDS011;8858;52.308;20.994;2022-12-24T10:48:29;24.00;;;17.87;;
17482;SDS011;8858;52.308;20.994;2022-12-24T10:51:08;24.60;;;18.57;;
17482;SDS011;8858;52.308;20.994;2022-12-24T10:53:42;25.60;;;18.77;;
17482;SDS011;8858;52.308;20.994;2022-12-24T10:56:16;26.43;;;18.80;;
17482;SDS011;8858;52.308;20.994;2022-12-24T10:58:49;26.80;;;18.40;;
17482;SDS011;8858;52.308;20.994;2022-12-24T11:04:15;25.53;;;18.87;;
17482;SDS011;8858;52.308;20.994;2022-12-24T11:06:52;26.40;;;19.33;;
17482;SDS011;8858;52.308;20.994;2022-12-24T11:09:26;27.57;;;20.17;;
17482;SDS011;8858;52.308;20.994;2022-12-24T11:11:58;28.07;;;19.50;;
17482;SDS011;8858;52.308;20.994;2022-12-24T11:14:35;26.17;;;19.83;;
17482;SDS011;8858;52.308;20.994;2022-12-24T11:17:06;29.20;;;19.37;;
17482;SDS011;8858;52.308;20.994;2022-12-24T11:19:48;28.83;;;20.37;;
17482;SDS011;8858;52.308;20.994;2022-12-24T11:22:18;24.87;;;19.40;;
17482;SDS011;8858;52.308;20.994;2022-12-24T11:24:56;25.87;;;19.37;;
17482;SDS011;8858;52.308;20.994;2022-12-24T11:27:29;27.90;;;20.23;;
17482;SDS011;8858;52.308;20.994;2022-12-24T11:30:18;27.10;;;19.73;;
17482;SDS011;8858;52.308;20.994;2022-12-24T11:32:49;25.27;;;18.90;;
17482;SDS011;8858;52.308;20.994;2022-12-24T11:35:39;30.10;;;20.13;;
17482;SDS011;8858;52.308;20.994;2022-12-24T11:38:16;26.37;;;19.17;;
17482;SDS011;8858;52.308;20.994;2022-12-24T11:40:49;26.47;;;19.07;;
17482;SDS011;8858;52.308;20.994;2022-12-24T11:43:23;47.90;;;32.47;;
17482;SDS011;8858;52.308;20.994;2022-12-24T11:46:11;29.33;;;21.20;;
17482;SDS011;8858;52.308;20.994;2022-12-24T11:48:42;26.27;;;18.87;;
17482;SDS011;8858;52.308;20.994;2022-12-24T11:54:03;26.70;;;18.87;;
17482;SDS011;8858;52.308;20.994;2022-12-24T11:56:36;24.97;;;17.77;;
17482;SDS011;8858;52.308;20.994;2022-12-24T11:59:12;24.87;;;18.47;;
17482;SDS011;8858;52.308;20.994;2022-12-24T12:01:49;26.37;;;18.77;;
17482;SDS011;8858;52.308;20.994;2022-12-24T12:04:28;26.30;;;18.03;;
17482;SDS011;8858;52.308;20.994;2022-12-24T12:07:02;24.43;;;17.67;;
17482;SDS011;8858;52.308;20.994;2022-12-24T12:09:42;26.30;;;17.93;;
17482;SDS011;8858;52.308;20.994;2022-12-24T12:12:14;24.10;;;17.43;;
17482;SDS011;8858;52.308;20.994;2022-12-24T12:14:49;25.70;;;17.87;;
17482;SDS011;8858;52.308;20.994;2022-12-24T12:17:23;23.23;;;16.93;;
17482;SDS011;8858;52.308;20.994;2022-12-24T12:19:57;23.93;;;16.53;;
17482;SDS011;8858;52.308;20.994;2022-12-24T12:22:33;22.07;;;16.73;;
17482;SDS011;8858;52.308;20.994;2022-12-24T12:25:15;23.27;;;17.00;;
17482;SDS011;8858;52.308;20.994;2022-12-24T12:27:48;24.03;;;17.73;;
17482;SDS011;8858;52.308;20.994;2022-12-24T12:30:20;23.77;;;17.93;;
17482;SDS011;8858;52.308;20.994;2022-12-24T12:32:50;26.10;;;18.60;;
17482;SDS011;8858;52.308;20.994;2022-12-24T12:35:24;24.57;;;17.57;;
17482;SDS011;8858;52.308;20.994;2022-12-24T12:37:58;24.20;;;18.20;;
17482;SDS011;8858;52.308;20.994;2022-12-24T12:40:37;23.63;;;17.40;;
17482;SDS011;8858;52.308;20.994;2022-12-24T12:43:23;24.67;;;17.27;;
17482;SDS011;8858;52.308;20.994;2022-12-24T12:46:01;23.27;;;17.10;;
17482;SDS011;8858;52.308;20.994;2022-12-24T12:48:41;23.77;;;17.03;;
17482;SDS011;8858;52.308;20.994;2022-12-24T12:51:30;25.10;;;17.27;;
17482;SDS011;8858;52.308;20.994;2022-12-24T12:54:20;26.20;;;18.43;;
17482;SDS011;8858;52.308;20.994;2022-12-24T12:57:00;27.17;;;18.77;;
17482;SDS011;8858;52.308;20.994;2022-12-24T12:59:35;31.60;;;20.90;;
17482;SDS011;8858;52.308;20.994;2022-12-24T13:02:16;40.50;;;24.63;;
17482;SDS011;8858;52.308;20.994;2022-12-24T13:05:07;35.53;;;23.67;;
17482;SDS011;8858;52.308;20.994;2022-12-24T13:11:33;32.30;;;21.03;;
17482;SDS011;8858;52.308;20.994;2022-12-24T13:14:19;29.23;;;20.37;;
17482;SDS011;8858;52.308;20.994;2022-12-24T13:20:21;24.80;;;18.13;;
17482;SDS011;8858;52.308;20.994;2022-12-24T13:22:56;25.90;;;18.47;;
17482;SDS011;8858;52.308;20.994;2022-12-24T13:25:30;25.77;;;19.00;;
17482;SDS011;8858;52.308;20.994;2022-12-24T13:28:29;27.70;;;19.53;;
17482;SDS011;8858;52.308;20.994;2022-12-24T13:33:56;32.20;;;21.03;;
17482;SDS011;8858;52.308;20.994;2022-12-24T13:42:45;35.23;;;23.43;;
17482;SDS011;8858;52.308;20.994;2022-12-24T13:48:16;60.93;;;39.77;;
17482;SDS011;8858;52.308;20.994;2022-12-24T13:50:55;47.93;;;31.23;;
17482;SDS011;8858;52.308;20.994;2022-12-24T13:53:27;44.80;;;27.07;;
17482;SDS011;8858;52.308;20.994;2022-12-24T13:56:01;46.53;;;26.17;;
17482;SDS011;8858;52.308;20.994;2022-12-24T13:58:35;40.07;;;25.20;;
17482;SDS011;8858;52.308;20.994;2022-12-24T14:01:08;43.50;;;27.47;;
17482;SDS011;8858;52.308;20.994;2022-12-24T14:03:40;43.50;;;26.80;;
17482;SDS011;8858;52.308;20.994;2022-12-24T14:06:19;45.23;;;26.73;;
17482;SDS011;8858;52.308;20.994;2022-12-24T14:08:50;49.97;;;26.80;;
17482;SDS011;8858;52.308;20.994;2022-12-24T14:11:25;46.67;;;26.53;;
17482;SDS011;8858;52.308;20.994;2022-12-24T14:16:55;44.00;;;26.10;;
17482;SDS011;8858;52.308;20.994;2022-12-24T14:19:27;45.40;;;26.33;;
17482;SDS011;8858;52.308;20.994;2022-12-24T14:22:03;46.60;;;26.63;;
17482;SDS011;8858;52.308;20.994;2022-12-24T14:24:52;49.53;;;27.47;;
17482;SDS011;8858;52.308;20.994;2022-12-24T14:27:28;46.30;;;26.17;;
17482;SDS011;8858;52.308;20.994;2022-12-24T14:30:02;43.20;;;25.13;;
17482;SDS011;8858;52.308;20.994;2022-12-24T14:32:36;41.70;;;25.47;;
17482;SDS011;8858;52.308;20.994;2022-12-24T14:35:07;44.13;;;25.60;;
17482;SDS011;8858;52.308;20.994;2022-12-24T14:37:44;44.13;;;26.10;;
17482;SDS011;8858;52.308;20.994;2022-12-24T14:40:15;41.90;;;25.60;;
17482;SDS011;8858;52.308;20.994;2022-12-24T14:42:49;48.37;;;26.73;;
17482;SDS011;8858;52.308;20.994;2022-12-24T14:45:26;49.97;;;28.67;;
17482;SDS011;8858;52.308;20.994;2022-12-24T14:48:05;56.27;;;32.57;;
17482;SDS011;8858;52.308;20.994;2022-12-24T14:50:50;52.70;;;30.80;;
17482;SDS011;8858;52.308;20.994;2022-12-24T14:53:34;52.53;;;29.20;;
17482;SDS011;8858;52.308;20.994;2022-12-24T14:56:15;50.50;;;27.87;;
17482;SDS011;8858;52.308;20.994;2022-12-24T14:58:45;51.83;;;28.10;;
17482;SDS011;8858;52.308;20.994;2022-12-24T15:01:19;50.73;;;26.90;;
17482;SDS011;8858;52.308;20.994;2022-12-24T15:04:00;47.87;;;26.10;;
17482;SDS011;8858;52.308;20.994;2022-12-24T15:06:30;45.53;;;25.03;;
17482;SDS011;8858;52.308;20.994;2022-12-24T15:09:01;45.13;;;26.83;;
17482;SDS011;8858;52.308;20.994;2022-12-24T15:11:31;43.27;;;25.13;;
17482;SDS011;8858;52.308;20.994;2022-12-24T15:14:00;46.57;;;25.90;;
17482;SDS011;8858;52.308;20.994;2022-12-24T15:16:29;46.00;;;25.33;;
17482;SDS011;8858;52.308;20.994;2022-12-24T15:19:02;42.73;;;24.97;;
17482;SDS011;8858;52.308;20.994;2022-12-24T15:21:35;43.70;;;26.07;;